sensor_id;sensor_type;location;lat;lon;timestamp;P1;durP1;ratioP1;P2;durP2;ratioP2
12986;SDS011;58897;51.960;5.582;2024-01-10T00:02:20;4.40;;;1.70;;
12986;SDS011;58897;51.960;5.582;2024-01-10T00:04:47;7.27;;;1.87;;
12986;SDS011;58897;51.960;5.582;2024-01-10T00:07:14;6.63;;;2.00;;
12986;SDS011;58897;51.960;5.582;2024-01-10T00:09:40;6.50;;;1.63;;
12986;SDS011;58897;51.960;5.582;2024-01-10T00:12:07;6.00;;;1.80;;
12986;SDS011;58897;51.960;5.582;2024-01-10T00:14:34;6.30;;;1.93;;
12986;SDS011;58897;51.960;5.582;2024-01-10T00:17:00;9.80;;;2.17;;
12986;SDS011;58897;51.960;5.582;2024-01-10T00:19:27;7.50;;;2.10;;
12986;SDS011;58897;51.960;5.582;2024-01-10T00:21:53;5.13;;;1.60;;
12986;SDS011;58897;51.960;5.582;2024-01-10T00:24:20;5.73;;;1.90;;
12986;SDS011;58897;51.960;5.582;2024-01-10T00:26:46;7.57;;;2.47;;
12986;SDS011;58897;51.960;5.582;2024-01-10T00:29:13;7.97;;;1.90;;
12986;SDS011;58897;51.960;5.582;2024-01-10T00:31:40;7.03;;;2.23;;
12986;SDS011;58897;51.960;5.582;2024-01-10T00:34:07;6.83;;;1.93;;
12986;SDS011;58897;51.960;5.582;2024-01-10T00:36:33;7.03;;;2.03;;
12986;SDS011;58897;51.960;5.582;2024-01-10T00:39:00;8.47;;;2.53;;
12986;SDS011;58897;51.960;5.582;2024-01-10T00:41:27;6.33;;;2.13;;
12986;SDS011;58897;51.960;5.582;2024-01-10T00:43:54;6.43;;;1.87;;
12986;SDS011;58897;51.960;5.582;2024-01-10T00:46:20;11.17;;;2.40;;
12986;SDS011;58897;51.960;5.582;2024-01-10T00:48:47;6.80;;;2.03;;
12986;SDS011;58897;51.960;5.582;2024-01-10T00:51:13;5.50;;;1.77;;
12986;SDS011;58897;51.960;5.582;2024-01-10T00:53:40;15.60;;;3.60;;
12986;SDS011;58897;51.960;5.582;2024-01-10T00:56:08;6.40;;;1.83;;
12986;SDS011;58897;51.960;5.582;2024-01-10T00:58:35;6.60;;;1.93;;
12986;SDS011;58897;51.960;5.582;2024-01-10T01:01:02;8.63;;;2.67;;
12986;SDS011;58897;51.960;5.582;2024-01-10T01:03:29;6.83;;;1.70;;
12986;SDS011;58897;51.960;5.582;2024-01-10T01:05:55;6.70;;;2.40;;
12986;SDS011;58897;51.960;5.582;2024-01-10T01:08:22;5.30;;;1.87;;
12986;SDS011;58897;51.960;5.582;2024-01-10T01:10:49;5.13;;;1.53;;
12986;SDS011;58897;51.960;5.582;2024-01-10T01:13:15;5.10;;;1.87;;
12986;SDS011;58897;51.960;5.582;2024-01-10T01:15:42;3.67;;;1.23;;
12986;SDS011;58897;51.960;5.582;2024-01-10T01:18:09;5.43;;;1.77;;
12986;SDS011;58897;51.960;5.582;2024-01-10T01:20:39;8.57;;;2.30;;
12986;SDS011;58897;51.960;5.582;2024-01-10T01:23:05;7.77;;;1.80;;
12986;SDS011;58897;51.960;5.582;2024-01-10T01:25:32;7.03;;;2.33;;
12986;SDS011;58897;51.960;5.582;2024-01-10T01:27:58;7.53;;;2.13;;
12986;SDS011;58897;51.960;5.582;2024-01-10T01:30:25;4.83;;;2.03;;
12986;SDS011;58897;51.960;5.582;2024-01-10T01:32:52;5.43;;;2.00;;
12986;SDS011;58897;51.960;5.582;2024-01-10T01:35:19;5.07;;;1.73;;
12986;SDS011;58897;51.960;5.582;2024-01-10T01:37:49;9.73;;;2.33;;
12986;SDS011;58897;51.960;5.582;2024-01-10T01:40:17;7.30;;;2.00;;
12986;SDS011;58897;51.960;5.582;2024-01-10T01:42:45;10.20;;;2.43;;
12986;SDS011;58897;51.960;5.582;2024-01-10T01:45:12;7.77;;;2.50;;
12986;SDS011;58897;51.960;5.582;2024-01-10T01:47:39;5.73;;;2.10;;
12986;SDS011;58897;51.960;5.582;2024-01-10T01:50:07;5.97;;;1.60;;
12986;SDS011;58897;51.960;5.582;2024-01-10T01:52:34;4.97;;;1.50;;
12986;SDS011;58897;51.960;5.582;2024-01-10T01:55:02;10.27;;;2.90;;
12986;SDS011;58897;51.960;5.582;2024-01-10T01:57:29;4.83;;;2.03;;
12986;SDS011;58897;51.960;5.582;2024-01-10T01:59:56;8.03;;;2.93;;
12986;SDS011;58897;51.960;5.582;2024-01-10T02:02:23;8.23;;;2.03;;
12986;SDS011;58897;51.960;5.582;2024-01-10T02:04:50;8.90;;;2.37;;
12986;SDS011;58897;51.960;5.582;2024-01-10T02:07:18;6.67;;;2.00;;
12986;SDS011;58897;51.960;5.582;2024-01-10T02:09:44;7.90;;;2.63;;
12986;SDS011;58897;51.960;5.582;2024-01-10T02:12:11;7.13;;;1.97;;
12986;SDS011;58897;51.960;5.582;2024-01-10T02:14:37;7.57;;;2.17;;
12986;SDS011;58897;51.960;5.582;2024-01-10T02:17:04;5.87;;;1.83;;
12986;SDS011;58897;51.960;5.582;2024-01-10T02:19:31;6.73;;;2.00;;
12986;SDS011;58897;51.960;5.582;2024-01-10T02:21:59;6.87;;;2.13;;
12986;SDS011;58897;51.960;5.582;2024-01-10T02:24:25;11.50;;;3.03;;
12986;SDS011;58897;51.960;5.582;2024-01-10T02:26:52;5.53;;;1.83;;
12986;SDS011;58897;51.960;5.582;2024-01-10T02:29:18;7.70;;;2.30;;
12986;SDS011;58897;51.960;5.582;2024-01-10T02:31:45;2.77;;;1.43;;
12986;SDS011;58897;51.960;5.582;2024-01-10T02:34:12;4.63;;;1.90;;
12986;SDS011;58897;51.960;5.582;2024-01-10T02:36:39;6.37;;;2.13;;
12986;SDS011;58897;51.960;5.582;2024-01-10T02:39:05;6.40;;;2.27;;
12986;SDS011;58897;51.960;5.582;2024-01-10T02:41:33;8.63;;;2.50;;
12986;SDS011;58897;51.960;5.582;2024-01-10T02:43:59;7.77;;;2.47;;
12986;SDS011;58897;51.960;5.582;2024-01-10T02:46:26;8.70;;;2.43;;
12986;SDS011;58897;51.960;5.582;2024-01-10T02:48:55;5.63;;;2.00;;
12986;SDS011;58897;51.960;5.582;2024-01-10T02:51:23;3.70;;;1.47;;
12986;SDS011;58897;51.960;5.582;2024-01-10T02:53:53;5.70;;;1.60;;
12986;SDS011;58897;51.960;5.582;2024-01-10T02:56:19;11.90;;;2.57;;
12986;SDS011;58897;51.960;5.582;2024-01-10T02:58:46;6.03;;;1.87;;
12986;SDS011;58897;51.960;5.582;2024-01-10T03:01:13;6.50;;;2.20;;
12986;SDS011;58897;51.960;5.582;2024-01-10T03:03:40;18.53;;;4.17;;
12986;SDS011;58897;51.960;5.582;2024-01-10T03:06:07;10.10;;;3.13;;
12986;SDS011;58897;51.960;5.582;2024-01-10T03:08:33;5.80;;;1.93;;
12986;SDS011;58897;51.960;5.582;2024-01-10T03:11:00;5.53;;;1.70;;
12986;SDS011;58897;51.960;5.582;2024-01-10T03:13:27;4.30;;;1.73;;
12986;SDS011;58897;51.960;5.582;2024-01-10T03:15:53;4.87;;;1.53;;
12986;SDS011;58897;51.960;5.582;2024-01-10T03:18:20;6.20;;;1.80;;
12986;SDS011;58897;51.960;5.582;2024-01-10T03:20:48;6.13;;;1.87;;
12986;SDS011;58897;51.960;5.582;2024-01-10T03:23:15;4.90;;;1.67;;
12986;SDS011;58897;51.960;5.582;2024-01-10T03:25:41;10.70;;;2.23;;
12986;SDS011;58897;51.960;5.582;2024-01-10T03:28:08;11.10;;;2.83;;
12986;SDS011;58897;51.960;5.582;2024-01-10T03:30:35;6.97;;;1.90;;
12986;SDS011;58897;51.960;5.582;2024-01-10T03:33:01;6.17;;;1.87;;
12986;SDS011;58897;51.960;5.582;2024-01-10T03:35:28;4.03;;;1.70;;
12986;SDS011;58897;51.960;5.582;2024-01-10T03:37:54;4.20;;;1.80;;
12986;SDS011;58897;51.960;5.582;2024-01-10T03:40:21;5.60;;;1.50;;
12986;SDS011;58897;51.960;5.582;2024-01-10T03:42:51;3.20;;;1.40;;
12986;SDS011;58897;51.960;5.582;2024-01-10T03:45:17;7.90;;;1.97;;
12986;SDS011;58897;51.960;5.582;2024-01-10T03:47:47;9.57;;;2.60;;
12986;SDS011;58897;51.960;5.582;2024-01-10T03:50:17;5.10;;;1.77;;
12986;SDS011;58897;51.960;5.582;2024-01-10T03:52:45;7.23;;;2.50;;
12986;SDS011;58897;51.960;5.582;2024-01-10T03:55:12;7.33;;;2.20;;
12986;SDS011;58897;51.960;5.582;2024-01-10T03:57:39;5.17;;;1.53;;
12986;SDS011;58897;51.960;5.582;2024-01-10T04:00:06;6.70;;;2.53;;
12986;SDS011;58897;51.960;5.582;2024-01-10T04:02:33;4.27;;;1.53;;
12986;SDS011;58897;51.960;5.582;2024-01-10T04:05:00;10.57;;;2.63;;
12986;SDS011;58897;51.960;5.582;2024-01-10T04:07:27;8.23;;;2.30;;
12986;SDS011;58897;51.960;5.582;2024-01-10T04:09:54;6.83;;;2.27;;
12986;SDS011;58897;51.960;5.582;2024-01-10T04:12:20;4.73;;;2.17;;
12986;SDS011;58897;51.960;5.582;2024-01-10T04:14:47;6.40;;;1.90;;
12986;SDS011;58897;51.960;5.582;2024-01-10T04:17:14;6.60;;;2.07;;
12986;SDS011;58897;51.960;5.582;2024-01-10T04:19:40;4.40;;;2.23;;
12986;SDS011;58897;51.960;5.582;2024-01-10T04:22:07;8.30;;;2.40;;
12986;SDS011;58897;51.960;5.582;2024-01-10T04:24:33;6.23;;;2.07;;
12986;SDS011;58897;51.960;5.582;2024-01-10T04:27:00;8.43;;;2.63;;
12986;SDS011;58897;51.960;5.582;2024-01-10T04:29:27;8.73;;;2.33;;
12986;SDS011;58897;51.960;5.582;2024-01-10T04:31:53;6.63;;;1.90;;
12986;SDS011;58897;51.960;5.582;2024-01-10T04:34:20;5.20;;;1.87;;
12986;SDS011;58897;51.960;5.582;2024-01-10T04:36:46;5.37;;;1.67;;
12986;SDS011;58897;51.960;5.582;2024-01-10T04:39:13;8.77;;;2.70;;
12986;SDS011;58897;51.960;5.582;2024-01-10T04:41:39;13.70;;;3.20;;
12986;SDS011;58897;51.960;5.582;2024-01-10T04:44:06;7.10;;;2.70;;
12986;SDS011;58897;51.960;5.582;2024-01-10T04:46:32;5.97;;;2.20;;
12986;SDS011;58897;51.960;5.582;2024-01-10T04:49:00;7.37;;;2.33;;
12986;SDS011;58897;51.960;5.582;2024-01-10T04:51:26;8.87;;;2.13;;
12986;SDS011;58897;51.960;5.582;2024-01-10T04:53:53;7.10;;;2.30;;
12986;SDS011;58897;51.960;5.582;2024-01-10T04:56:20;7.20;;;2.10;;
12986;SDS011;58897;51.960;5.582;2024-01-10T04:58:46;6.30;;;2.07;;
12986;SDS011;58897;51.960;5.582;2024-01-10T05:01:13;5.63;;;1.60;;
12986;SDS011;58897;51.960;5.582;2024-01-10T05:03:40;11.23;;;3.13;;
12986;SDS011;58897;51.960;5.582;2024-01-10T05:06:07;8.73;;;2.53;;
12986;SDS011;58897;51.960;5.582;2024-01-10T05:08:33;6.97;;;2.10;;
12986;SDS011;58897;51.960;5.582;2024-01-10T05:11:00;10.93;;;3.40;;
12986;SDS011;58897;51.960;5.582;2024-01-10T05:13:27;7.70;;;2.33;;
12986;SDS011;58897;51.960;5.582;2024-01-10T05:15:53;6.37;;;2.10;;
12986;SDS011;58897;51.960;5.582;2024-01-10T05:18:21;10.07;;;2.97;;
12986;SDS011;58897;51.960;5.582;2024-01-10T05:20:47;4.83;;;1.90;;
12986;SDS011;58897;51.960;5.582;2024-01-10T05:23:14;4.03;;;1.50;;
12986;SDS011;58897;51.960;5.582;2024-01-10T05:25:41;4.73;;;1.47;;
12986;SDS011;58897;51.960;5.582;2024-01-10T05:28:07;7.80;;;2.33;;
12986;SDS011;58897;51.960;5.582;2024-01-10T05:30:34;9.30;;;2.77;;
12986;SDS011;58897;51.960;5.582;2024-01-10T05:33:01;7.43;;;2.53;;
12986;SDS011;58897;51.960;5.582;2024-01-10T05:35:28;8.93;;;2.70;;
12986;SDS011;58897;51.960;5.582;2024-01-10T05:37:55;9.90;;;2.67;;
12986;SDS011;58897;51.960;5.582;2024-01-10T05:40:22;6.67;;;1.87;;
12986;SDS011;58897;51.960;5.582;2024-01-10T05:42:48;5.20;;;1.97;;
12986;SDS011;58897;51.960;5.582;2024-01-10T05:45:15;5.00;;;1.70;;
12986;SDS011;58897;51.960;5.582;2024-01-10T05:47:44;6.83;;;2.10;;
12986;SDS011;58897;51.960;5.582;2024-01-10T05:50:11;7.63;;;2.63;;
12986;SDS011;58897;51.960;5.582;2024-01-10T05:52:37;9.57;;;2.30;;
12986;SDS011;58897;51.960;5.582;2024-01-10T05:55:04;11.10;;;3.60;;
12986;SDS011;58897;51.960;5.582;2024-01-10T05:57:32;6.70;;;2.50;;
12986;SDS011;58897;51.960;5.582;2024-01-10T05:59:59;5.70;;;2.30;;
12986;SDS011;58897;51.960;5.582;2024-01-10T06:02:26;7.60;;;2.33;;
12986;SDS011;58897;51.960;5.582;2024-01-10T06:04:53;6.40;;;2.20;;
12986;SDS011;58897;51.960;5.582;2024-01-10T06:07:19;6.67;;;2.07;;
12986;SDS011;58897;51.960;5.582;2024-01-10T06:09:47;5.23;;;2.30;;
12986;SDS011;58897;51.960;5.582;2024-01-10T06:12:14;8.37;;;2.70;;
12986;SDS011;58897;51.960;5.582;2024-01-10T06:14:40;7.57;;;2.07;;
12986;SDS011;58897;51.960;5.582;2024-01-10T06:17:07;11.67;;;2.67;;
12986;SDS011;58897;51.960;5.582;2024-01-10T06:19:34;7.40;;;2.17;;
12986;SDS011;58897;51.960;5.582;2024-01-10T06:22:00;5.00;;;1.60;;
12986;SDS011;58897;51.960;5.582;2024-01-10T06:24:27;5.50;;;1.70;;
12986;SDS011;58897;51.960;5.582;2024-01-10T06:26:54;4.10;;;2.30;;
12986;SDS011;58897;51.960;5.582;2024-01-10T06:29:20;5.67;;;2.57;;
12986;SDS011;58897;51.960;5.582;2024-01-10T06:31:47;2.93;;;2.20;;
12986;SDS011;58897;51.960;5.582;2024-01-10T06:34:14;8.27;;;2.63;;
12986;SDS011;58897;51.960;5.582;2024-01-10T06:36:41;7.87;;;2.60;;
12986;SDS011;58897;51.960;5.582;2024-01-10T06:39:09;10.87;;;3.00;;
12986;SDS011;58897;51.960;5.582;2024-01-10T06:41:39;12.03;;;3.60;;
12986;SDS011;58897;51.960;5.582;2024-01-10T06:44:06;4.50;;;2.00;;
12986;SDS011;58897;51.960;5.582;2024-01-10T06:46:33;8.43;;;2.63;;
12986;SDS011;58897;51.960;5.582;2024-01-10T06:48:59;4.50;;;1.90;;
12986;SDS011;58897;51.960;5.582;2024-01-10T06:51:26;10.30;;;3.43;;
12986;SDS011;58897;51.960;5.582;2024-01-10T06:53:53;7.00;;;2.90;;
12986;SDS011;58897;51.960;5.582;2024-01-10T06:56:26;11.93;;;2.90;;
12986;SDS011;58897;51.960;5.582;2024-01-10T06:58:53;7.37;;;2.80;;
12986;SDS011;58897;51.960;5.582;2024-01-10T07:01:20;7.63;;;2.73;;
12986;SDS011;58897;51.960;5.582;2024-01-10T07:03:48;14.57;;;4.07;;
12986;SDS011;58897;51.960;5.582;2024-01-10T07:06:15;5.90;;;2.30;;
12986;SDS011;58897;51.960;5.582;2024-01-10T07:08:42;9.13;;;2.97;;
12986;SDS011;58897;51.960;5.582;2024-01-10T07:11:11;5.23;;;2.23;;
12986;SDS011;58897;51.960;5.582;2024-01-10T07:13:37;13.87;;;4.13;;
12986;SDS011;58897;51.960;5.582;2024-01-10T07:16:05;8.07;;;2.70;;
12986;SDS011;58897;51.960;5.582;2024-01-10T07:18:31;16.03;;;3.73;;
12986;SDS011;58897;51.960;5.582;2024-01-10T07:20:58;8.67;;;2.93;;
12986;SDS011;58897;51.960;5.582;2024-01-10T07:23:26;11.00;;;2.37;;
12986;SDS011;58897;51.960;5.582;2024-01-10T07:25:53;7.63;;;2.67;;
12986;SDS011;58897;51.960;5.582;2024-01-10T07:28:20;11.40;;;3.93;;
12986;SDS011;58897;51.960;5.582;2024-01-10T07:30:47;8.43;;;2.90;;
12986;SDS011;58897;51.960;5.582;2024-01-10T07:33:14;10.37;;;2.77;;
12986;SDS011;58897;51.960;5.582;2024-01-10T07:35:40;11.10;;;2.80;;
12986;SDS011;58897;51.960;5.582;2024-01-10T07:38:07;9.33;;;3.07;;
12986;SDS011;58897;51.960;5.582;2024-01-10T07:40:34;10.37;;;3.03;;
12986;SDS011;58897;51.960;5.582;2024-01-10T07:43:01;6.13;;;2.33;;
12986;SDS011;58897;51.960;5.582;2024-01-10T07:45:28;16.80;;;4.17;;
12986;SDS011;58897;51.960;5.582;2024-01-10T07:47:55;8.23;;;2.97;;
12986;SDS011;58897;51.960;5.582;2024-01-10T07:50:22;7.83;;;3.00;;
12986;SDS011;58897;51.960;5.582;2024-01-10T07:52:53;8.00;;;2.30;;
12986;SDS011;58897;51.960;5.582;2024-01-10T07:55:20;10.63;;;3.37;;
12986;SDS011;58897;51.960;5.582;2024-01-10T07:57:46;9.90;;;3.13;;
12986;SDS011;58897;51.960;5.582;2024-01-10T08:00:13;10.57;;;3.30;;
12986;SDS011;58897;51.960;5.582;2024-01-10T08:02:41;11.70;;;3.10;;
12986;SDS011;58897;51.960;5.582;2024-01-10T08:05:08;7.03;;;2.37;;
12986;SDS011;58897;51.960;5.582;2024-01-10T08:07:35;8.97;;;2.77;;
12986;SDS011;58897;51.960;5.582;2024-01-10T08:10:06;8.33;;;2.67;;
12986;SDS011;58897;51.960;5.582;2024-01-10T08:12:38;7.53;;;2.63;;
12986;SDS011;58897;51.960;5.582;2024-01-10T08:15:07;14.37;;;3.90;;
12986;SDS011;58897;51.960;5.582;2024-01-10T08:17:33;17.17;;;3.87;;
12986;SDS011;58897;51.960;5.582;2024-01-10T08:20:01;11.00;;;3.30;;
12986;SDS011;58897;51.960;5.582;2024-01-10T08:22:30;15.50;;;4.23;;
12986;SDS011;58897;51.960;5.582;2024-01-10T08:24:57;7.27;;;2.60;;
12986;SDS011;58897;51.960;5.582;2024-01-10T08:27:23;6.37;;;2.67;;
12986;SDS011;58897;51.960;5.582;2024-01-10T08:29:50;8.57;;;3.10;;
12986;SDS011;58897;51.960;5.582;2024-01-10T08:32:17;10.27;;;4.17;;
12986;SDS011;58897;51.960;5.582;2024-01-10T08:34:47;10.90;;;3.60;;
12986;SDS011;58897;51.960;5.582;2024-01-10T08:37:15;14.43;;;4.03;;
12986;SDS011;58897;51.960;5.582;2024-01-10T08:39:43;9.33;;;3.73;;
12986;SDS011;58897;51.960;5.582;2024-01-10T08:42:13;13.00;;;3.67;;
12986;SDS011;58897;51.960;5.582;2024-01-10T08:44:40;11.93;;;3.50;;
12986;SDS011;58897;51.960;5.582;2024-01-10T08:47:07;8.43;;;3.07;;
12986;SDS011;58897;51.960;5.582;2024-01-10T08:49:36;8.00;;;3.20;;
12986;SDS011;58897;51.960;5.582;2024-01-10T08:52:03;14.30;;;4.10;;
12986;SDS011;58897;51.960;5.582;2024-01-10T08:54:29;12.57;;;3.57;;
12986;SDS011;58897;51.960;5.582;2024-01-10T08:56:56;22.53;;;6.47;;
12986;SDS011;58897;51.960;5.582;2024-01-10T08:59:23;23.13;;;6.00;;
12986;SDS011;58897;51.960;5.582;2024-01-10T09:01:50;8.10;;;3.20;;
12986;SDS011;58897;51.960;5.582;2024-01-10T09:04:18;18.57;;;5.00;;
12986;SDS011;58897;51.960;5.582;2024-01-10T09:06:46;19.33;;;5.77;;
12986;SDS011;58897;51.960;5.582;2024-01-10T09:09:13;19.63;;;5.57;;
12986;SDS011;58897;51.960;5.582;2024-01-10T09:11:40;14.73;;;5.23;;
12986;SDS011;58897;51.960;5.582;2024-01-10T09:14:09;18.07;;;5.33;;
12986;SDS011;58897;51.960;5.582;2024-01-10T09:16:36;26.70;;;7.47;;
12986;SDS011;58897;51.960;5.582;2024-01-10T09:19:03;10.97;;;3.70;;
12986;SDS011;58897;51.960;5.582;2024-01-10T09:21:34;7.90;;;3.30;;
12986;SDS011;58897;51.960;5.582;2024-01-10T09:24:01;18.97;;;5.53;;
12986;SDS011;58897;51.960;5.582;2024-01-10T09:26:46;11.40;;;4.13;;
12986;SDS011;58897;51.960;5.582;2024-01-10T09:29:13;22.43;;;6.97;;
12986;SDS011;58897;51.960;5.582;2024-01-10T09:31:41;16.00;;;5.43;;
12986;SDS011;58897;51.960;5.582;2024-01-10T09:34:07;8.93;;;4.23;;
12986;SDS011;58897;51.960;5.582;2024-01-10T09:36:34;11.17;;;4.33;;
12986;SDS011;58897;51.960;5.582;2024-01-10T09:39:01;9.33;;;3.97;;
12986;SDS011;58897;51.960;5.582;2024-01-10T09:41:33;11.70;;;4.93;;
12986;SDS011;58897;51.960;5.582;2024-01-10T09:44:07;8.60;;;4.13;;
12986;SDS011;58897;51.960;5.582;2024-01-10T09:46:34;8.80;;;4.13;;
12986;SDS011;58897;51.960;5.582;2024-01-10T09:49:04;10.20;;;3.83;;
12986;SDS011;58897;51.960;5.582;2024-01-10T09:51:31;12.43;;;4.87;;
12986;SDS011;58897;51.960;5.582;2024-01-10T09:53:59;8.67;;;4.20;;
12986;SDS011;58897;51.960;5.582;2024-01-10T09:56:29;11.67;;;4.90;;
12986;SDS011;58897;51.960;5.582;2024-01-10T09:58:58;10.50;;;4.47;;
12986;SDS011;58897;51.960;5.582;2024-01-10T10:01:27;11.93;;;4.97;;
12986;SDS011;58897;51.960;5.582;2024-01-10T10:03:54;8.00;;;3.93;;
12986;SDS011;58897;51.960;5.582;2024-01-10T10:06:23;14.57;;;5.07;;
12986;SDS011;58897;51.960;5.582;2024-01-10T10:08:49;12.00;;;4.90;;
12986;SDS011;58897;51.960;5.582;2024-01-10T10:11:16;10.93;;;5.40;;
12986;SDS011;58897;51.960;5.582;2024-01-10T10:13:43;16.23;;;6.67;;
12986;SDS011;58897;51.960;5.582;2024-01-10T10:16:09;11.97;;;5.17;;
12986;SDS011;58897;51.960;5.582;2024-01-10T10:18:39;11.20;;;4.90;;
12986;SDS011;58897;51.960;5.582;2024-01-10T10:21:11;10.80;;;4.97;;
12986;SDS011;58897;51.960;5.582;2024-01-10T10:23:40;15.07;;;6.67;;
12986;SDS011;58897;51.960;5.582;2024-01-10T10:26:12;13.67;;;5.97;;
12986;SDS011;58897;51.960;5.582;2024-01-10T10:28:45;11.17;;;5.13;;
12986;SDS011;58897;51.960;5.582;2024-01-10T10:31:16;12.47;;;5.10;;
12986;SDS011;58897;51.960;5.582;2024-01-10T10:33:44;15.60;;;7.00;;
12986;SDS011;58897;51.960;5.582;2024-01-10T10:36:13;8.77;;;4.67;;
12986;SDS011;58897;51.960;5.582;2024-01-10T10:38:40;10.57;;;5.33;;
12986;SDS011;58897;51.960;5.582;2024-01-10T10:41:07;12.47;;;5.80;;
12986;SDS011;58897;51.960;5.582;2024-01-10T10:43:38;15.13;;;6.63;;
12986;SDS011;58897;51.960;5.582;2024-01-10T10:46:09;9.57;;;4.97;;
12986;SDS011;58897;51.960;5.582;2024-01-10T10:48:39;11.37;;;5.40;;
12986;SDS011;58897;51.960;5.582;2024-01-10T10:53:37;13.50;;;6.53;;
12986;SDS011;58897;51.960;5.582;2024-01-10T10:56:05;11.13;;;4.93;;
12986;SDS011;58897;51.960;5.582;2024-01-10T10:58:34;13.67;;;6.27;;
12986;SDS011;58897;51.960;5.582;2024-01-10T11:01:04;8.20;;;4.83;;
12986;SDS011;58897;51.960;5.582;2024-01-10T11:03:34;10.87;;;4.63;;
12986;SDS011;58897;51.960;5.582;2024-01-10T11:06:09;10.20;;;4.97;;
12986;SDS011;58897;51.960;5.582;2024-01-10T11:08:37;10.23;;;5.03;;
12986;SDS011;58897;51.960;5.582;2024-01-10T11:11:14;12.47;;;4.87;;
12986;SDS011;58897;51.960;5.582;2024-01-10T11:14:03;11.33;;;5.20;;
12986;SDS011;58897;51.960;5.582;2024-01-10T11:17:01;12.10;;;5.10;;
12986;SDS011;58897;51.960;5.582;2024-01-10T11:22:32;14.17;;;5.30;;
12986;SDS011;58897;51.960;5.582;2024-01-10T11:25:06;14.17;;;5.83;;
12986;SDS011;58897;51.960;5.582;2024-01-10T11:27:33;16.23;;;6.00;;
12986;SDS011;58897;51.960;5.582;2024-01-10T11:30:00;11.43;;;5.40;;
12986;SDS011;58897;51.960;5.582;2024-01-10T11:32:27;8.23;;;4.50;;
12986;SDS011;58897;51.960;5.582;2024-01-10T11:37:20;14.60;;;5.90;;
12986;SDS011;58897;51.960;5.582;2024-01-10T11:39:47;16.17;;;6.00;;
12986;SDS011;58897;51.960;5.582;2024-01-10T11:42:23;12.70;;;5.57;;
12986;SDS011;58897;51.960;5.582;2024-01-10T11:45:07;9.40;;;4.93;;
12986;SDS011;58897;51.960;5.582;2024-01-10T11:47:37;15.17;;;5.87;;
12986;SDS011;58897;51.960;5.582;2024-01-10T11:50:06;11.80;;;5.37;;
12986;SDS011;58897;51.960;5.582;2024-01-10T11:52:34;13.47;;;5.37;;
12986;SDS011;58897;51.960;5.582;2024-01-10T11:55:03;9.67;;;4.67;;
12986;SDS011;58897;51.960;5.582;2024-01-10T11:57:31;10.53;;;5.07;;
12986;SDS011;58897;51.960;5.582;2024-01-10T12:00:01;13.53;;;5.43;;
12986;SDS011;58897;51.960;5.582;2024-01-10T12:02:31;11.63;;;5.73;;
12986;SDS011;58897;51.960;5.582;2024-01-10T12:04:58;14.63;;;5.73;;
12986;SDS011;58897;51.960;5.582;2024-01-10T12:07:25;11.17;;;5.13;;
12986;SDS011;58897;51.960;5.582;2024-01-10T12:09:53;13.27;;;5.87;;
12986;SDS011;58897;51.960;5.582;2024-01-10T12:12:21;12.93;;;5.40;;
12986;SDS011;58897;51.960;5.582;2024-01-10T12:14:48;11.50;;;5.30;;
12986;SDS011;58897;51.960;5.582;2024-01-10T12:17:19;14.60;;;5.83;;
12986;SDS011;58897;51.960;5.582;2024-01-10T12:19:46;11.60;;;5.37;;
12986;SDS011;58897;51.960;5.582;2024-01-10T12:22:18;11.17;;;5.67;;
12986;SDS011;58897;51.960;5.582;2024-01-10T12:24:47;17.47;;;6.37;;
12986;SDS011;58897;51.960;5.582;2024-01-10T12:27:20;10.50;;;5.10;;
12986;SDS011;58897;51.960;5.582;2024-01-10T12:29:49;11.80;;;5.07;;
12986;SDS011;58897;51.960;5.582;2024-01-10T12:32:24;17.33;;;5.90;;
12986;SDS011;58897;51.960;5.582;2024-01-10T12:38:48;13.83;;;5.87;;
12986;SDS011;58897;51.960;5.582;2024-01-10T12:41:15;13.50;;;6.10;;
12986;SDS011;58897;51.960;5.582;2024-01-10T12:43:53;15.27;;;5.40;;
12986;SDS011;58897;51.960;5.582;2024-01-10T12:46:23;12.10;;;5.50;;
12986;SDS011;58897;51.960;5.582;2024-01-10T12:49:00;14.57;;;6.07;;
12986;SDS011;58897;51.960;5.582;2024-01-10T12:51:29;11.70;;;5.33;;
12986;SDS011;58897;51.960;5.582;2024-01-10T12:53:57;12.17;;;5.77;;
12986;SDS011;58897;51.960;5.582;2024-01-10T12:56:27;10.27;;;5.00;;
12986;SDS011;58897;51.960;5.582;2024-01-10T12:58:57;17.33;;;5.60;;
12986;SDS011;58897;51.960;5.582;2024-01-10T13:01:28;11.47;;;5.03;;
12986;SDS011;58897;51.960;5.582;2024-01-10T13:03:55;11.93;;;5.10;;
12986;SDS011;58897;51.960;5.582;2024-01-10T13:06:22;13.27;;;5.70;;
12986;SDS011;58897;51.960;5.582;2024-01-10T13:08:51;16.40;;;6.50;;
12986;SDS011;58897;51.960;5.582;2024-01-10T13:11:17;15.37;;;5.97;;
12986;SDS011;58897;51.960;5.582;2024-01-10T13:13:44;17.57;;;7.07;;
12986;SDS011;58897;51.960;5.582;2024-01-10T13:16:11;21.93;;;7.53;;
12986;SDS011;58897;51.960;5.582;2024-01-10T13:18:39;25.53;;;7.77;;
12986;SDS011;58897;51.960;5.582;2024-01-10T13:21:06;17.60;;;6.67;;
12986;SDS011;58897;51.960;5.582;2024-01-10T13:23:32;21.20;;;7.33;;
12986;SDS011;58897;51.960;5.582;2024-01-10T13:26:02;20.73;;;7.30;;
12986;SDS011;58897;51.960;5.582;2024-01-10T13:28:29;14.53;;;5.93;;
12986;SDS011;58897;51.960;5.582;2024-01-10T13:30:56;17.23;;;6.40;;
12986;SDS011;58897;51.960;5.582;2024-01-10T13:33:23;18.30;;;7.10;;
12986;SDS011;58897;51.960;5.582;2024-01-10T13:35:50;14.53;;;5.57;;
12986;SDS011;58897;51.960;5.582;2024-01-10T13:38:16;18.30;;;6.57;;
12986;SDS011;58897;51.960;5.582;2024-01-10T13:40:43;22.23;;;7.47;;
12986;SDS011;58897;51.960;5.582;2024-01-10T13:43:10;14.83;;;5.90;;
12986;SDS011;58897;51.960;5.582;2024-01-10T13:45:37;13.77;;;5.70;;
12986;SDS011;58897;51.960;5.582;2024-01-10T13:48:05;18.93;;;6.77;;
12986;SDS011;58897;51.960;5.582;2024-01-10T13:50:32;18.87;;;6.80;;
12986;SDS011;58897;51.960;5.582;2024-01-10T13:52:59;13.23;;;5.57;;
12986;SDS011;58897;51.960;5.582;2024-01-10T13:55:26;18.53;;;6.93;;
12986;SDS011;58897;51.960;5.582;2024-01-10T13:57:52;19.13;;;6.63;;
12986;SDS011;58897;51.960;5.582;2024-01-10T14:00:20;15.13;;;6.20;;
12986;SDS011;58897;51.960;5.582;2024-01-10T14:02:46;26.33;;;8.20;;
12986;SDS011;58897;51.960;5.582;2024-01-10T14:05:13;19.60;;;7.23;;
12986;SDS011;58897;51.960;5.582;2024-01-10T14:07:41;18.03;;;6.40;;
12986;SDS011;58897;51.960;5.582;2024-01-10T14:10:11;16.17;;;5.73;;
12986;SDS011;58897;51.960;5.582;2024-01-10T14:12:37;29.80;;;8.43;;
12986;SDS011;58897;51.960;5.582;2024-01-10T14:15:04;13.87;;;5.67;;
12986;SDS011;58897;51.960;5.582;2024-01-10T14:17:31;13.93;;;5.13;;
12986;SDS011;58897;51.960;5.582;2024-01-10T14:19:58;23.13;;;7.40;;
12986;SDS011;58897;51.960;5.582;2024-01-10T14:22:25;18.00;;;6.43;;
12986;SDS011;58897;51.960;5.582;2024-01-10T14:24:58;12.77;;;4.97;;
12986;SDS011;58897;51.960;5.582;2024-01-10T14:27:28;17.93;;;5.90;;
12986;SDS011;58897;51.960;5.582;2024-01-10T14:29:55;23.60;;;7.43;;
12986;SDS011;58897;51.960;5.582;2024-01-10T14:32:21;19.67;;;6.57;;
12986;SDS011;58897;51.960;5.582;2024-01-10T14:34:49;19.77;;;6.30;;
12986;SDS011;58897;51.960;5.582;2024-01-10T14:37:16;22.67;;;6.97;;
12986;SDS011;58897;51.960;5.582;2024-01-10T14:39:43;25.63;;;7.13;;
12986;SDS011;58897;51.960;5.582;2024-01-10T14:42:09;17.17;;;6.07;;
12986;SDS011;58897;51.960;5.582;2024-01-10T14:44:36;21.87;;;6.97;;
12986;SDS011;58897;51.960;5.582;2024-01-10T14:47:03;17.33;;;5.73;;
12986;SDS011;58897;51.960;5.582;2024-01-10T14:49:37;17.47;;;5.73;;
12986;SDS011;58897;51.960;5.582;2024-01-10T14:52:04;18.23;;;5.97;;
12986;SDS011;58897;51.960;5.582;2024-01-10T14:54:31;25.23;;;6.90;;
12986;SDS011;58897;51.960;5.582;2024-01-10T14:56:58;18.33;;;6.40;;